Terminal Aerodrome Forecast
Issued by NWS

Home | Current Version | Previous Version | Text Only | Print | Product List | Glossary On
Versions: 1 2 3 4 5 6 7 8 9 10 11 12 13
173
FTUS42 TJSJ 020552
TAFNCM
TAF
TNCM 020552Z 0206/0306 10007KT P6SM -SHRA VCTS SCT018CB SCT022
      OVC090
     FM021330 11012KT P6SM -RA SCT018 SCT022 OVC100
     FM022330 10008KT P6SM VCSH FEW018 FEW022 SCT040=

USA.gov is the U.S. government's official web portal to all federal, state and local government web resources and services.